createdAt,value
2019-05-19T00:00:27.343Z,5.73
2019-05-19T00:03:15.055Z,6.57
2019-05-19T00:06:03.092Z,6.30
2019-05-19T00:08:51.293Z,6.40
2019-05-19T00:11:38.881Z,5.77
2019-05-19T00:14:26.572Z,5.83
2019-05-19T00:17:14.215Z,6.43
2019-05-19T00:20:01.937Z,7.00
2019-05-19T00:22:49.742Z,7.23
2019-05-19T00:25:37.721Z,6.63
2019-05-19T00:28:25.225Z,7.40
2019-05-19T00:31:13.069Z,6.87
2019-05-19T00:34:00.870Z,6.67
2019-05-19T00:36:48.821Z,8.63
2019-05-19T00:39:36.733Z,7.87
2019-05-19T00:42:24.677Z,7.77
2019-05-19T00:45:12.821Z,8.17
2019-05-19T00:48:00.453Z,7.80
2019-05-19T00:50:48.165Z,8.10
2019-05-19T00:53:35.769Z,8.40
2019-05-19T00:56:24.362Z,7.83
2019-05-19T00:59:12.214Z,8.00
2019-05-19T01:02:00.212Z,8.40
2019-05-19T01:04:48.061Z,8.67
2019-05-19T01:07:36.233Z,8.03
2019-05-19T01:10:24.060Z,8.20
2019-05-19T01:13:11.690Z,8.37
2019-05-19T01:15:59.659Z,8.37
2019-05-19T01:18:47.225Z,7.53
2019-05-19T01:21:35.533Z,7.80
2019-05-19T01:24:23.585Z,7.93
2019-05-19T01:27:11.345Z,8.50
2019-05-19T01:29:59.017Z,8.27
2019-05-19T01:32:46.901Z,8.70
2019-05-19T01:35:34.954Z,8.40
2019-05-19T01:38:22.769Z,8.50
2019-05-19T01:41:10.685Z,8.37
2019-05-19T01:43:58.541Z,8.50
2019-05-19T01:46:46.736Z,8.70
2019-05-19T01:49:43.595Z,8.43
2019-05-19T01:52:31.494Z,9.17
2019-05-19T01:55:19.188Z,9.43
2019-05-19T01:58:07.052Z,8.63
2019-05-19T02:00:54.854Z,8.93
2019-05-19T02:03:42.888Z,9.40
2019-05-19T02:06:30.986Z,9.13
2019-05-19T02:09:18.639Z,8.97
2019-05-19T02:12:06.458Z,9.30
2019-05-19T02:14:54.302Z,8.77
2019-05-19T02:17:42.190Z,9.37
2019-05-19T02:20:33.283Z,8.40
2019-05-19T02:23:19.921Z,8.80
2019-05-19T02:26:07.605Z,8.10
2019-05-19T02:28:55.635Z,9.03
2019-05-19T02:31:43.605Z,8.17
2019-05-19T02:34:31.314Z,9.10
2019-05-19T02:37:19.114Z,8.37
2019-05-19T02:40:07.671Z,9.20
2019-05-19T02:42:56.061Z,9.27
2019-05-19T02:45:45.485Z,9.17
2019-05-19T02:48:33.937Z,9.17
2019-05-19T02:51:22.572Z,9.47
2019-05-19T02:54:11.296Z,9.33
2019-05-19T02:57:00.242Z,10.13
2019-05-19T02:59:47.814Z,10.43
2019-05-19T03:02:35.466Z,10.60
2019-05-19T03:05:23.592Z,10.43
2019-05-19T03:08:11.258Z,10.27
2019-05-19T03:10:59.048Z,10.07
2019-05-19T03:13:46.903Z,10.00
2019-05-19T03:16:35.062Z,10.63
2019-05-19T03:19:23.073Z,9.80
2019-05-19T03:22:10.812Z,10.83
2019-05-19T03:24:58.513Z,11.23
2019-05-19T03:27:46.562Z,12.43
2019-05-19T03:30:41.729Z,11.77
2019-05-19T03:33:31.196Z,13.00
2019-05-19T03:36:18.765Z,13.20
2019-05-19T03:39:07.447Z,12.60
2019-05-19T03:41:55.117Z,13.57
2019-05-19T03:44:43.103Z,12.17
2019-05-19T03:47:31.031Z,13.97
2019-05-19T03:50:18.935Z,12.17
2019-05-19T03:53:07.013Z,12.83
2019-05-19T03:55:55.194Z,12.87
2019-05-19T03:58:42.853Z,12.57
2019-05-19T04:01:30.491Z,12.73
2019-05-19T04:04:18.514Z,12.33
2019-05-19T04:07:06.474Z,11.40
2019-05-19T04:09:54.397Z,14.13
2019-05-19T04:12:42.116Z,11.93
2019-05-19T04:15:30.192Z,12.77
2019-05-19T04:18:18.150Z,13.87
2019-05-19T04:21:05.989Z,14.20
2019-05-19T04:23:53.650Z,13.53
2019-05-19T04:26:41.624Z,14.37
2019-05-19T04:29:29.652Z,13.40
2019-05-19T04:32:17.590Z,13.50
2019-05-19T04:35:06.358Z,17.17
2019-05-19T04:37:54.431Z,15.77
2019-05-19T04:40:43.079Z,13.20
2019-05-19T04:43:30.939Z,12.90
2019-05-19T04:46:18.920Z,13.53
2019-05-19T04:49:06.839Z,13.93
2019-05-19T04:52:05.891Z,14.77
2019-05-19T04:54:44.893Z,12.87
2019-05-19T04:57:32.617Z,16.60
2019-05-19T05:00:20.692Z,16.27
2019-05-19T05:03:08.523Z,17.60
2019-05-19T05:05:56.633Z,15.10
2019-05-19T05:08:44.674Z,14.93
2019-05-19T05:11:32.510Z,16.67
2019-05-19T05:14:20.553Z,17.07
2019-05-19T05:17:08.445Z,18.47
2019-05-19T05:19:56.169Z,14.90
2019-05-19T05:22:44.115Z,18.67
2019-05-19T05:25:31.906Z,18.00
2019-05-19T05:28:19.468Z,17.57
2019-05-19T05:31:06.949Z,17.40
2019-05-19T05:33:54.840Z,17.00
2019-05-19T05:36:42.718Z,18.00
2019-05-19T05:39:30.656Z,16.53
2019-05-19T05:42:18.365Z,17.17
2019-05-19T05:45:06.988Z,16.63
2019-05-19T05:47:54.785Z,16.77
2019-05-19T05:50:42.566Z,17.57
2019-05-19T05:53:30.336Z,13.30
2019-05-19T05:56:18.001Z,15.83
2019-05-19T05:59:05.849Z,15.50
2019-05-19T06:01:53.481Z,16.03
2019-05-19T06:04:41.690Z,15.23
2019-05-19T06:07:29.521Z,15.67
2019-05-19T06:10:17.501Z,14.87
2019-05-19T06:13:05.227Z,15.90
2019-05-19T06:15:53.185Z,16.27
2019-05-19T06:18:41.213Z,16.60
2019-05-19T06:21:29.456Z,15.50
2019-05-19T06:24:17.025Z,14.07
2019-05-19T06:27:04.913Z,12.97
2019-05-19T06:29:52.722Z,12.37
2019-05-19T06:32:45.234Z,11.83
2019-05-19T06:35:33.244Z,11.87
2019-05-19T06:38:20.788Z,11.73
2019-05-19T06:41:08.788Z,11.40
2019-05-19T06:43:56.495Z,10.33
2019-05-19T06:46:44.671Z,10.83
2019-05-19T06:49:32.356Z,8.93
2019-05-19T06:52:20.212Z,9.73
2019-05-19T06:55:08.678Z,9.60
2019-05-19T06:57:56.452Z,9.63
2019-05-19T07:00:44.189Z,8.43
2019-05-19T07:03:32.116Z,8.23
2019-05-19T07:06:19.926Z,8.27
2019-05-19T07:09:08.204Z,8.03
2019-05-19T07:11:55.696Z,8.40
2019-05-19T07:14:43.746Z,7.57
2019-05-19T07:17:31.542Z,7.60
2019-05-19T07:20:19.438Z,7.53
2019-05-19T07:23:07.216Z,7.60
2019-05-19T07:25:55.194Z,7.27
2019-05-19T07:28:42.906Z,7.27
2019-05-19T07:31:30.841Z,6.30
2019-05-19T07:34:18.882Z,7.60
2019-05-19T07:37:06.565Z,7.00
2019-05-19T07:39:54.366Z,6.43
2019-05-19T07:42:42.088Z,6.70
2019-05-19T07:45:30.002Z,6.33
2019-05-19T07:48:18.029Z,6.47
2019-05-19T07:51:06.153Z,6.03
2019-05-19T07:53:54.109Z,6.87
2019-05-19T07:56:41.776Z,7.20
2019-05-19T07:59:29.677Z,7.27
2019-05-19T08:02:17.550Z,5.90
2019-05-19T08:05:07.587Z,7.30
2019-05-19T08:07:55.923Z,6.30
2019-05-19T08:10:43.913Z,7.20
2019-05-19T08:13:32.174Z,7.20
2019-05-19T08:16:20.225Z,7.13
2019-05-19T08:19:07.869Z,6.60
2019-05-19T08:21:55.720Z,7.23
2019-05-19T08:24:43.635Z,7.57
2019-05-19T08:27:31.557Z,7.40
2019-05-19T08:30:19.563Z,6.50
2019-05-19T08:33:07.381Z,6.30
2019-05-19T08:35:55.395Z,5.73
2019-05-19T08:38:43.581Z,6.50
2019-05-19T08:41:31.281Z,6.80
2019-05-19T08:44:19.073Z,5.50
2019-05-19T08:47:06.913Z,5.93
2019-05-19T08:49:54.985Z,5.60
2019-05-19T08:52:42.751Z,6.23
2019-05-19T08:55:30.795Z,5.43
2019-05-19T08:58:18.768Z,6.10
2019-05-19T09:01:07.000Z,4.77
2019-05-19T09:04:00.573Z,4.57
2019-05-19T09:06:48.287Z,4.90
2019-05-19T09:09:36.154Z,5.60
2019-05-19T09:12:23.914Z,5.33
2019-05-19T09:15:12.299Z,4.87
2019-05-19T09:18:00.420Z,5.80
2019-05-19T09:20:48.267Z,5.00
2019-05-19T09:23:36.041Z,5.13
2019-05-19T09:26:24.051Z,4.60
2019-05-19T09:29:11.655Z,4.60
2019-05-19T09:31:59.489Z,4.10
2019-05-19T09:34:47.459Z,3.63
2019-05-19T09:37:35.339Z,5.20
2019-05-19T09:40:26.395Z,4.17
2019-05-19T09:43:13.566Z,4.30
2019-05-19T09:46:01.353Z,4.67
2019-05-19T09:48:50.992Z,4.33
2019-05-19T09:51:39.045Z,4.80
2019-05-19T09:54:27.365Z,5.10
2019-05-19T09:57:15.205Z,5.13
2019-05-19T10:00:04.633Z,4.87
2019-05-19T10:02:52.361Z,4.93
2019-05-19T10:05:40.405Z,4.70
2019-05-19T10:08:30.012Z,4.50
2019-05-19T10:11:36.002Z,4.50
2019-05-19T10:14:24.410Z,4.57
2019-05-19T10:17:12.411Z,4.80
2019-05-19T10:20:00.556Z,5.00
2019-05-19T10:22:48.199Z,4.50
2019-05-19T10:25:45.602Z,4.03
2019-05-19T10:28:33.275Z,4.47
2019-05-19T10:31:21.169Z,4.10
2019-05-19T10:34:09.139Z,4.40
2019-05-19T10:36:57.097Z,4.47
2019-05-19T10:39:44.717Z,4.00
2019-05-19T10:42:32.605Z,4.13
2019-05-19T10:45:20.617Z,3.80
2019-05-19T10:48:08.672Z,4.03
2019-05-19T10:50:56.464Z,3.50
2019-05-19T10:53:44.354Z,3.43
2019-05-19T10:56:33.574Z,3.30
2019-05-19T10:59:21.518Z,3.30
2019-05-19T11:02:09.160Z,2.90
2019-05-19T11:04:57.057Z,2.97
2019-05-19T11:07:45.017Z,3.00
2019-05-19T11:10:32.928Z,3.40
2019-05-19T11:13:20.605Z,3.20
2019-05-19T11:16:08.239Z,3.33
2019-05-19T11:18:55.893Z,3.50
2019-05-19T11:21:43.949Z,2.87
2019-05-19T11:24:31.794Z,3.27
2019-05-19T11:27:19.676Z,3.47
2019-05-19T11:30:07.793Z,2.87
2019-05-19T11:32:55.803Z,3.03
2019-05-19T11:35:43.769Z,2.93
2019-05-19T11:38:31.403Z,2.80
2019-05-19T11:41:19.030Z,3.03
2019-05-19T11:44:06.981Z,3.33
2019-05-19T11:46:54.641Z,3.00
2019-05-19T11:49:42.574Z,3.00
2019-05-19T11:52:30.682Z,3.27
2019-05-19T11:55:18.701Z,3.20
2019-05-19T11:58:06.253Z,2.97
2019-05-19T12:00:54.146Z,2.80
2019-05-19T12:03:42.054Z,2.90
2019-05-19T12:06:38.817Z,2.80
2019-05-19T12:09:19.795Z,3.30
2019-05-19T12:12:07.782Z,3.23
2019-05-19T12:14:55.847Z,3.33
2019-05-19T12:17:43.661Z,3.27
2019-05-19T12:20:31.225Z,3.47
2019-05-19T12:23:19.017Z,3.37
2019-05-19T12:26:22.302Z,3.20
2019-05-19T12:28:57.174Z,3.30
2019-05-19T12:31:45.138Z,3.30
2019-05-19T12:34:32.719Z,4.03
2019-05-19T12:37:20.343Z,4.20
2019-05-19T12:40:08.445Z,3.97
2019-05-19T12:42:56.539Z,3.40
2019-05-19T12:45:44.315Z,4.07
2019-05-19T12:48:32.453Z,3.30
2019-05-19T12:51:20.219Z,2.90
2019-05-19T12:54:08.189Z,2.80
2019-05-19T12:56:56.165Z,3.83
2019-05-19T12:59:44.071Z,3.90
2019-05-19T13:02:32.157Z,3.80
2019-05-19T13:05:19.940Z,3.27
2019-05-19T13:08:11.258Z,3.77
2019-05-19T13:10:57.523Z,4.00
2019-05-19T13:13:45.160Z,3.53
2019-05-19T13:16:33.177Z,3.37
2019-05-19T13:19:21.132Z,4.07
2019-05-19T13:22:08.795Z,4.47
2019-05-19T13:24:56.642Z,3.73
2019-05-19T13:27:44.368Z,3.80
2019-05-19T13:30:31.925Z,3.93
2019-05-19T13:33:19.677Z,3.83
2019-05-19T13:36:07.699Z,4.13
2019-05-19T13:38:55.226Z,3.70
2019-05-19T13:41:43.025Z,3.60
2019-05-19T13:44:30.924Z,4.13
2019-05-19T13:47:18.732Z,3.70
2019-05-19T13:50:07.696Z,3.60
2019-05-19T13:52:55.593Z,3.93
2019-05-19T13:55:43.647Z,4.20
2019-05-19T13:58:31.404Z,3.73
2019-05-19T14:01:28.301Z,4.03
2019-05-19T14:04:08.436Z,3.80
2019-05-19T14:06:56.113Z,4.00
2019-05-19T14:09:44.196Z,3.70
2019-05-19T14:12:32.271Z,4.23
2019-05-19T14:15:20.047Z,3.63
2019-05-19T14:18:08.009Z,3.30
2019-05-19T14:20:55.766Z,3.50
2019-05-19T14:23:43.890Z,3.40
2019-05-19T14:26:31.578Z,3.83
2019-05-19T14:29:19.432Z,3.47
2019-05-19T14:32:07.333Z,3.53
2019-05-19T14:34:55.276Z,3.70
2019-05-19T14:37:43.237Z,3.93
2019-05-19T14:40:31.065Z,3.77
2019-05-19T14:43:23.593Z,4.10
2019-05-19T14:46:11.374Z,3.80
2019-05-19T14:48:59.425Z,3.83
2019-05-19T14:51:47.157Z,3.40
2019-05-19T14:54:34.861Z,3.40
2019-05-19T14:57:22.709Z,3.27
2019-05-19T15:00:11.217Z,3.30
2019-05-19T15:02:58.737Z,3.90
2019-05-19T15:05:46.566Z,3.37
2019-05-19T15:08:34.273Z,3.83
2019-05-19T15:11:22.077Z,3.60
2019-05-19T15:14:09.974Z,3.43
2019-05-19T15:16:57.872Z,3.90
2019-05-19T15:19:45.885Z,3.77
2019-05-19T15:22:33.938Z,4.13
2019-05-19T15:25:21.891Z,3.63
2019-05-19T15:28:09.877Z,3.83
2019-05-19T15:30:58.133Z,3.90
2019-05-19T15:33:45.794Z,3.70
2019-05-19T15:36:33.394Z,3.80
2019-05-19T15:39:21.149Z,3.67
2019-05-19T15:42:09.110Z,3.90
2019-05-19T15:44:56.933Z,3.50
2019-05-19T15:47:44.592Z,3.70
2019-05-19T15:50:32.391Z,3.90
2019-05-19T15:53:20.402Z,3.90
2019-05-19T15:56:08.250Z,3.73
2019-05-19T15:58:56.075Z,3.57
2019-05-19T16:01:44.133Z,4.00
2019-05-19T16:04:32.325Z,3.70
2019-05-19T16:07:20.224Z,3.83
2019-05-19T16:10:09.280Z,3.60
2019-05-19T16:12:57.214Z,3.70
2019-05-19T16:15:45.294Z,3.10
2019-05-19T16:18:33.059Z,3.50
2019-05-19T16:21:20.701Z,3.40
2019-05-19T16:24:08.592Z,3.40
2019-05-19T16:26:56.613Z,3.60
2019-05-19T16:29:44.232Z,3.20
2019-05-19T16:32:32.017Z,3.53
2019-05-19T16:35:19.988Z,3.20
2019-05-19T16:38:07.663Z,3.40
2019-05-19T16:40:55.470Z,3.30
2019-05-19T16:43:43.117Z,3.00
2019-05-19T16:46:31.329Z,3.43
2019-05-19T16:49:19.631Z,3.53
2019-05-19T16:52:09.070Z,3.60
2019-05-19T16:55:10.821Z,3.20
2019-05-19T16:57:58.633Z,3.10
2019-05-19T17:00:46.735Z,3.50
2019-05-19T17:03:34.644Z,3.50
2019-05-19T17:06:22.291Z,3.57
2019-05-19T17:09:10.382Z,3.33
2019-05-19T17:11:58.348Z,3.57
2019-05-19T17:14:48.913Z,3.50
2019-05-19T17:17:36.221Z,3.83
2019-05-19T17:20:24.309Z,4.33
2019-05-19T17:23:13.937Z,3.37
2019-05-19T17:26:02.054Z,3.80
2019-05-19T17:29:00.181Z,3.70
2019-05-19T17:31:39.593Z,3.60
2019-05-19T17:34:27.421Z,3.60
2019-05-19T17:37:16.111Z,3.97
2019-05-19T17:40:04.533Z,3.70
2019-05-19T17:42:52.172Z,3.93
2019-05-19T17:45:40.049Z,3.47
2019-05-19T17:48:29.346Z,3.60
2019-05-19T17:51:17.573Z,3.57
2019-05-19T17:54:05.363Z,4.10
2019-05-19T17:56:53.585Z,3.50
2019-05-19T17:59:44.529Z,3.57
2019-05-19T18:02:32.321Z,3.60
2019-05-19T18:05:20.440Z,4.07
2019-05-19T18:08:08.607Z,3.80
2019-05-19T18:10:56.290Z,3.90
2019-05-19T18:13:44.239Z,3.70
2019-05-19T18:16:32.362Z,4.03
2019-05-19T18:19:20.209Z,3.40
2019-05-19T18:22:07.897Z,3.50
2019-05-19T18:24:55.917Z,3.63
2019-05-19T18:27:45.970Z,3.67
2019-05-19T18:30:33.649Z,4.00
2019-05-19T18:33:21.406Z,3.67
2019-05-19T18:36:09.453Z,3.40
2019-05-19T18:38:57.273Z,3.83
2019-05-19T18:41:44.881Z,4.00
2019-05-19T18:44:32.685Z,3.50
2019-05-19T18:47:20.371Z,3.47
2019-05-19T18:50:08.458Z,3.50
2019-05-19T18:52:56.344Z,3.80
2019-05-19T18:55:44.133Z,3.50
2019-05-19T18:58:32.015Z,3.57
2019-05-19T19:01:19.966Z,3.43
2019-05-19T19:04:07.878Z,3.70
2019-05-19T19:06:55.854Z,3.73
2019-05-19T19:09:43.857Z,3.60
2019-05-19T19:12:31.888Z,3.83
2019-05-19T19:15:19.537Z,3.53
2019-05-19T19:18:07.286Z,4.00
2019-05-19T19:20:55.134Z,3.80
2019-05-19T19:23:43.553Z,3.80
2019-05-19T19:26:31.827Z,4.27
2019-05-19T19:29:19.941Z,3.83
2019-05-19T19:32:08.104Z,4.17
2019-05-19T19:34:56.482Z,3.80
2019-05-19T19:37:44.467Z,3.77
2019-05-19T19:40:32.906Z,4.20
2019-05-19T19:43:20.773Z,4.13
2019-05-19T19:46:08.931Z,4.07
2019-05-19T19:48:56.885Z,4.13
2019-05-19T19:51:44.816Z,4.60
2019-05-19T19:54:32.678Z,4.33
2019-05-19T19:57:20.830Z,3.93
2019-05-19T20:00:17.706Z,4.27
2019-05-19T20:02:58.989Z,4.13
2019-05-19T20:05:46.977Z,4.10
2019-05-19T20:08:34.901Z,4.23
2019-05-19T20:11:22.708Z,4.20
2019-05-19T20:14:10.351Z,3.97
2019-05-19T20:16:58.008Z,4.37
2019-05-19T20:19:46.186Z,4.87
2019-05-19T20:22:34.277Z,4.77
2019-05-19T20:25:21.936Z,4.73
2019-05-19T20:28:09.809Z,4.63
2019-05-19T20:30:57.418Z,4.73
2019-05-19T20:33:45.280Z,4.60
2019-05-19T20:36:33.303Z,4.77
2019-05-19T20:39:21.281Z,4.87
2019-05-19T20:42:09.345Z,5.03
2019-05-19T20:44:57.247Z,4.60
2019-05-19T20:47:45.154Z,4.70
2019-05-19T20:50:32.945Z,5.70
2019-05-19T20:53:20.597Z,5.30
2019-05-19T20:56:08.621Z,5.47
2019-05-19T20:58:56.425Z,4.97
2019-05-19T21:01:45.069Z,5.33
2019-05-19T21:04:33.106Z,5.00
2019-05-19T21:07:21.091Z,5.40
2019-05-19T21:10:09.042Z,4.90
2019-05-19T21:12:57.701Z,5.00
2019-05-19T21:15:45.805Z,4.60
2019-05-19T21:18:33.709Z,4.97
2019-05-19T21:21:21.613Z,5.43
2019-05-19T21:24:09.401Z,5.23
2019-05-19T21:26:57.073Z,5.20
2019-05-19T21:29:44.854Z,5.47
2019-05-19T21:32:32.424Z,5.43
2019-05-19T21:35:20.033Z,5.00
2019-05-19T21:38:07.724Z,4.50
2019-05-19T21:40:55.558Z,5.00
2019-05-19T21:43:43.233Z,4.97
2019-05-19T21:46:30.928Z,5.50
2019-05-19T21:49:18.989Z,5.07
2019-05-19T21:52:06.890Z,5.30
2019-05-19T21:54:54.733Z,5.43
2019-05-19T21:57:42.749Z,5.40
2019-05-19T22:00:31.261Z,4.73
2019-05-19T22:03:19.202Z,5.40
2019-05-19T22:06:06.953Z,4.83
2019-05-19T22:08:54.809Z,4.90
2019-05-19T22:11:42.953Z,4.97
2019-05-19T22:14:30.993Z,5.07
2019-05-19T22:17:18.894Z,4.67
2019-05-19T22:20:07.086Z,4.77
2019-05-19T22:22:54.753Z,4.67
2019-05-19T22:25:42.631Z,4.63
2019-05-19T22:28:30.553Z,4.37
2019-05-19T22:31:18.277Z,4.93
2019-05-19T22:34:06.380Z,5.00
2019-05-19T22:36:54.305Z,4.70
2019-05-19T22:39:42.237Z,5.10
2019-05-19T22:42:30.065Z,5.30
2019-05-19T22:45:18.239Z,5.57
2019-05-19T22:48:05.873Z,5.00
2019-05-19T22:50:53.593Z,4.10
2019-05-19T22:53:41.478Z,4.87
2019-05-19T22:56:29.405Z,4.70
2019-05-19T22:59:19.709Z,3.27
2019-05-19T23:02:09.260Z,2.90
2019-05-19T23:04:56.501Z,3.20
2019-05-19T23:07:44.361Z,2.13
2019-05-19T23:10:32.269Z,1.93
2019-05-19T23:13:20.095Z,1.80
2019-05-19T23:16:07.717Z,1.70
2019-05-19T23:18:55.417Z,1.40
2019-05-19T23:21:43.401Z,1.30
2019-05-19T23:24:31.328Z,1.30
2019-05-19T23:27:19.169Z,1.30
2019-05-19T23:30:07.898Z,1.20
2019-05-19T23:32:55.813Z,1.10
2019-05-19T23:35:43.696Z,1.20
2019-05-19T23:38:31.598Z,1.07
2019-05-19T23:41:19.225Z,1.13
2019-05-19T23:44:06.973Z,1.20
2019-05-19T23:46:54.916Z,1.23
2019-05-19T23:49:42.552Z,1.30
2019-05-19T23:52:30.422Z,1.33
2019-05-19T23:55:18.537Z,1.30
2019-05-19T23:58:06.161Z,1.60
